Time;durP1;ratioP1;P1;durP2;ratioP2;P2;SDS_P1;SDS_P2;PMS_P1;PMS_P2;Temp;Humidity;BMP_temperature;BMP_pressure;BME280_temperature;BME280_humidity;BME280_pressure;Samples;Min_cycle;Max_cycle;Signal;HPM_P1;HPM_P2
2021/08/16 00:01:41;;;;;;;;;2.00;2.00;;;;;;;;4959139;28;46172;-88
2021/08/16 00:04:06;;;;;;;;;2.00;2.00;;;;;;;;4967429;28;45514;-89
2021/08/16 00:06:32;;;;;;;;;4.00;3.67;;;;;;;;4967243;28;45696;-88
2021/08/16 00:08:57;;;;;;;;;2.50;2.00;;;;;;;;5027750;28;45530;-88
2021/08/16 00:11:22;;;;;;;;;9.00;2.25;;;;;;;;4962122;28;45326;-88
2021/08/16 00:13:47;;;;;;;;;2.00;2.00;;;;;;;;4963276;28;45462;-89
2021/08/16 00:16:12;;;;;;;;;2.00;2.00;;;;;;;;4954014;28;45438;-88
2021/08/16 00:18:38;;;;;;;;;7.00;3.00;;;;;;;;4973713;28;45872;-88
2021/08/16 00:21:03;;;;;;;;;2.00;2.00;;;;;;;;4981117;28;45541;-88
2021/08/16 00:23:28;;;;;;;;;3.00;2.00;;;;;;;;4958201;28;45395;-88
2021/08/16 00:25:54;;;;;;;;;7.00;3.00;;;;;;;;5028540;28;45363;-88
2021/08/16 00:28:19;;;;;;;;;1.00;1.00;;;;;;;;4963307;28;45601;-87
2021/08/16 00:30:44;;;;;;;;;4.00;2.00;;;;;;;;4956459;28;45409;-87
2021/08/16 00:33:10;;;;;;;;;5.00;2.00;;;;;;;;5027820;28;45488;-86
2021/08/16 00:35:35;;;;;;;;;4.00;1.75;;;;;;;;4962786;28;45568;-88
2021/08/16 00:38:00;;;;;;;;;5.25;2.00;;;;;;;;4964156;28;45640;-87
2021/08/16 00:40:26;;;;;;;;;5.75;2.00;;;;;;;;5034166;28;46995;-88
2021/08/16 00:42:51;;;;;;;;;3.00;2.50;;;;;;;;5023690;28;45289;-87
2021/08/16 00:45:17;;;;;;;;;5.00;1.67;;;;;;;;5037639;28;45368;-86
2021/08/16 00:47:42;;;;;;;;;4.00;3.00;;;;;;;;5062661;28;45404;-87
2021/08/16 00:50:08;;;;;;;;;5.00;2.33;;;;;;;;5053713;28;47216;-85
2021/08/16 00:52:33;;;;;;;;;3.75;2.50;;;;;;;;5066871;28;45200;-87
2021/08/16 00:54:59;;;;;;;;;3.25;2.50;;;;;;;;5064269;27;45471;-88
2021/08/16 00:57:31;;;;;;;;;4.75;3.75;;;;;;;;5066747;28;45338;-86
2021/08/16 00:59:57;;;;;;;;;3.50;2.00;;;;;;;;5061163;27;45421;-87
2021/08/16 01:02:23;;;;;;;;;2.50;2.50;;;;;;;;5067324;27;46146;-87
2021/08/16 01:04:48;;;;;;;;;2.00;2.00;;;;;;;;5044667;28;45579;-83
2021/08/16 01:07:13;;;;;;;;;2.25;1.50;;;;;;;;5065543;28;45445;-87
2021/08/16 01:09:38;;;;;;;;;2.00;2.00;;;;;;;;5064478;28;45430;-86
2021/08/16 01:12:04;;;;;;;;;4.33;3.00;;;;;;;;5049167;28;45450;-88
2021/08/16 01:14:29;;;;;;;;;4.25;2.00;;;;;;;;5064237;27;45295;-88
2021/08/16 01:16:54;;;;;;;;;5.25;2.00;;;;;;;;5044301;28;45493;-86
2021/08/16 01:19:20;;;;;;;;;2.67;2.00;;;;;;;;5065619;28;46139;-87
2021/08/16 01:21:46;;;;;;;;;4.00;1.75;;;;;;;;5057998;28;45424;-86
2021/08/16 01:24:11;;;;;;;;;2.00;2.00;;;;;;;;5049271;28;45367;-87
2021/08/16 01:26:36;;;;;;;;;2.67;1.00;;;;;;;;5065038;27;45453;-84
2021/08/16 01:29:03;;;;;;;;;3.67;2.00;;;;;;;;5066436;27;46941;-87
2021/08/16 01:31:28;;;;;;;;;2.00;2.00;;;;;;;;5069809;27;45498;-87
2021/08/16 01:33:53;;;;;;;;;4.00;3.00;;;;;;;;5043239;28;45395;-88
2021/08/16 01:36:18;;;;;;;;;4.00;2.33;;;;;;;;5071551;27;45397;-88
2021/08/16 01:38:44;;;;;;;;;1.67;1.00;;;;;;;;5063871;28;46033;-87
2021/08/16 01:41:09;;;;;;;;;5.00;2.50;;;;;;;;5049142;28;45521;-88
2021/08/16 01:43:34;;;;;;;;;3.25;1.00;;;;;;;;5051912;28;45459;-88
2021/08/16 01:45:59;;;;;;;;;2.33;1.00;;;;;;;;5063938;28;45389;-87
2021/08/16 01:48:25;;;;;;;;;2.67;1.67;;;;;;;;5068564;27;46028;-84
2021/08/16 01:50:50;;;;;;;;;2.50;1.00;;;;;;;;5072930;27;45395;-87
2021/08/16 01:53:16;;;;;;;;;3.00;1.00;;;;;;;;5047078;28;45407;-88
2021/08/16 01:55:41;;;;;;;;;2.00;2.00;;;;;;;;5043517;28;45498;-88
2021/08/16 01:58:07;;;;;;;;;3.00;1.33;;;;;;;;5070561;27;45497;-87
2021/08/16 02:00:33;;;;;;;;;2.75;1.75;;;;;;;;5068077;27;45831;-87
2021/08/16 02:02:58;;;;;;;;;5.00;1.33;;;;;;;;5052222;28;45385;-87
2021/08/16 02:05:23;;;;;;;;;1.00;1.00;;;;;;;;5063283;27;45413;-88
2021/08/16 02:07:48;;;;;;;;;5.33;1.67;;;;;;;;5048554;28;46761;-87
2021/08/16 02:10:14;;;;;;;;;2.00;2.00;;;;;;;;5060353;28;45457;-88
2021/08/16 02:12:39;;;;;;;;;2.00;1.50;;;;;;;;5071779;27;45346;-88
2021/08/16 02:15:05;;;;;;;;;2.00;2.00;;;;;;;;5048764;28;45642;-88
2021/08/16 02:17:31;;;;;;;;;3.25;2.00;;;;;;;;5067794;27;45760;-87
2021/08/16 02:19:56;;;;;;;;;5.00;2.00;;;;;;;;5067369;28;45656;-89
2021/08/16 02:22:21;;;;;;;;;1.00;1.00;;;;;;;;5067444;28;45454;-88
2021/08/16 02:24:46;;;;;;;;;4.75;2.00;;;;;;;;5053293;28;45493;-85
2021/08/16 02:27:12;;;;;;;;;5.00;0.33;;;;;;;;5062219;28;45589;-87
2021/08/16 02:29:37;;;;;;;;;3.67;1.00;;;;;;;;5068251;27;45497;-87
2021/08/16 02:32:02;;;;;;;;;2.67;2.00;;;;;;;;5049093;28;45654;-87
2021/08/16 02:34:27;;;;;;;;;2.00;2.00;;;;;;;;5051387;27;45564;-87
2021/08/16 02:36:53;;;;;;;;;2.00;2.00;;;;;;;;5050208;28;47143;-88
2021/08/16 02:39:18;;;;;;;;;5.25;1.75;;;;;;;;5069142;28;45458;-88
2021/08/16 02:41:43;;;;;;;;;2.75;1.25;;;;;;;;5069666;28;45457;-85
2021/08/16 02:44:08;;;;;;;;;3.00;1.33;;;;;;;;5063593;28;45417;-87
2021/08/16 02:46:34;;;;;;;;;4.00;2.00;;;;;;;;5068664;27;46276;-87
2021/08/16 02:49:00;;;;;;;;;2.00;2.00;;;;;;;;5069434;27;45580;-88
2021/08/16 02:51:26;;;;;;;;;3.50;0.50;;;;;;;;5068095;28;46941;-88
2021/08/16 02:53:51;;;;;;;;;2.00;2.00;;;;;;;;5064642;28;45455;-87
2021/08/16 02:56:16;;;;;;;;;2.50;1.50;;;;;;;;5066549;28;45485;-86
2021/08/16 02:58:42;;;;;;;;;3.00;1.67;;;;;;;;5066996;27;45553;-87
2021/08/16 03:01:07;;;;;;;;;2.00;1.00;;;;;;;;5070299;28;45348;-87
2021/08/16 03:03:32;;;;;;;;;4.67;2.00;;;;;;;;5041868;28;45359;-87
2021/08/16 03:05:57;;;;;;;;;3.00;2.00;;;;;;;;5052211;28;47545;-88
2021/08/16 03:08:22;;;;;;;;;4.00;2.00;;;;;;;;5065609;28;45572;-88
2021/08/16 03:10:48;;;;;;;;;3.67;2.00;;;;;;;;5068161;28;45406;-84
2021/08/16 03:13:13;;;;;;;;;3.25;2.75;;;;;;;;5071311;28;45474;-87
2021/08/16 03:15:38;;;;;;;;;4.00;3.00;;;;;;;;5046164;28;46106;-87
2021/08/16 03:18:03;;;;;;;;;4.33;2.00;;;;;;;;5066373;28;45363;-88
2021/08/16 03:20:29;;;;;;;;;6.00;2.00;;;;;;;;5067817;27;45390;-88
2021/08/16 03:22:54;;;;;;;;;6.75;2.75;;;;;;;;5066202;28;45538;-87
2021/08/16 03:25:19;;;;;;;;;5.00;3.33;;;;;;;;5070657;28;46425;-88
2021/08/16 03:27:45;;;;;;;;;5.75;4.00;;;;;;;;5066857;28;45431;-88
2021/08/16 03:30:11;;;;;;;;;4.00;2.00;;;;;;;;5068179;28;45490;-87
2021/08/16 03:32:36;;;;;;;;;2.25;2.25;;;;;;;;5070376;28;45669;-87
2021/08/16 03:35:02;;;;;;;;;2.75;2.00;;;;;;;;5066755;28;45399;-87
2021/08/16 03:37:32;;;;;;;;;2.50;2.50;;;;;;;;5075579;27;45520;-87
2021/08/16 03:39:58;;;;;;;;;4.00;2.00;;;;;;;;5055531;28;45367;-87
2021/08/16 03:42:23;;;;;;;;;6.50;2.50;;;;;;;;5071492;27;45367;-87
2021/08/16 03:44:48;;;;;;;;;3.00;3.00;;;;;;;;5067016;28;45367;-85
2021/08/16 03:47:14;;;;;;;;;7.00;2.33;;;;;;;;5050890;28;45542;-88
2021/08/16 03:49:39;;;;;;;;;6.33;2.33;;;;;;;;5067322;28;45351;-86
2021/08/16 03:52:04;;;;;;;;;2.33;2.33;;;;;;;;5067657;27;45570;-86
2021/08/16 03:54:29;;;;;;;;;3.00;2.00;;;;;;;;5065706;28;46006;-87
2021/08/16 03:56:55;;;;;;;;;1.33;0.00;;;;;;;;5050193;28;45389;-87
2021/08/16 03:59:20;;;;;;;;;3.33;2.00;;;;;;;;5068380;28;45493;-87
2021/08/16 04:01:45;;;;;;;;;4.00;3.00;;;;;;;;5065752;28;45329;-88
2021/08/16 04:04:10;;;;;;;;;4.00;2.00;;;;;;;;5066901;27;46220;-86
2021/08/16 04:06:35;;;;;;;;;2.00;2.00;;;;;;;;5065824;28;45344;-87
2021/08/16 04:09:01;;;;;;;;;2.67;1.00;;;;;;;;5049262;28;45385;-88
2021/08/16 04:11:26;;;;;;;;;1.25;1.00;;;;;;;;5043496;28;45614;-86
2021/08/16 04:13:51;;;;;;;;;6.67;3.67;;;;;;;;5065640;28;46014;-88
2021/08/16 04:16:16;;;;;;;;;3.00;2.00;;;;;;;;5059292;28;45365;-88
2021/08/16 04:18:42;;;;;;;;;1.50;1.50;;;;;;;;5068379;28;45564;-88
2021/08/16 04:21:07;;;;;;;;;6.00;3.00;;;;;;;;5071670;28;45414;-87
2021/08/16 04:23:32;;;;;;;;;4.00;1.75;;;;;;;;5065461;28;45395;-89
2021/08/16 04:25:58;;;;;;;;;4.33;1.00;;;;;;;;5043082;28;46510;-87
2021/08/16 04:28:23;;;;;;;;;2.33;1.67;;;;;;;;5064053;27;45540;-88
2021/08/16 04:30:48;;;;;;;;;3.00;1.00;;;;;;;;5044425;28;45498;-88
2021/08/16 04:33:13;;;;;;;;;2.67;1.00;;;;;;;;5067036;28;46127;-89
2021/08/16 04:35:39;;;;;;;;;5.00;1.25;;;;;;;;5056825;28;45464;-87
2021/08/16 04:38:04;;;;;;;;;1.00;1.00;;;;;;;;5054307;28;46260;-87
2021/08/16 04:40:29;;;;;;;;;2.00;2.00;;;;;;;;5037353;28;45696;-88
2021/08/16 04:42:54;;;;;;;;;4.33;1.33;;;;;;;;5039014;28;46051;-84
2021/08/16 04:45:20;;;;;;;;;1.00;1.00;;;;;;;;5044648;28;45696;-88
2021/08/16 04:47:45;;;;;;;;;2.25;1.00;;;;;;;;5054649;28;46404;-88
2021/08/16 04:50:12;;;;;;;;;2.00;1.75;;;;;;;;5038838;28;45546;-88
2021/08/16 04:52:37;;;;;;;;;2.00;2.00;;;;;;;;5057679;28;45292;-87
2021/08/16 04:55:03;;;;;;;;;1.25;1.00;;;;;;;;5062009;27;45591;-88
2021/08/16 04:57:32;;;;;;;;;4.00;2.00;;;;;;;;5057580;28;45530;-89
2021/08/16 04:59:57;;;;;;;;;2.75;2.00;;;;;;;;5054401;28;45398;-88
2021/08/16 05:02:22;;;;;;;;;2.00;0.75;;;;;;;;5057537;27;46614;-89
2021/08/16 05:04:53;;;;;;;;;0.33;0.33;;;;;;;;5065889;28;45479;-88
2021/08/16 05:07:18;;;;;;;;;1.75;0.75;;;;;;;;5061682;28;48108;-88
2021/08/16 05:09:43;;;;;;;;;2.50;0.50;;;;;;;;5064635;27;45481;-89
2021/08/16 05:12:09;;;;;;;;;2.00;2.00;;;;;;;;5050589;28;47482;-88
2021/08/16 05:14:34;;;;;;;;;3.67;1.33;;;;;;;;5051793;28;45599;-87
2021/08/16 05:16:59;;;;;;;;;1.33;0.67;;;;;;;;5069567;28;45587;-88
2021/08/16 05:19:24;;;;;;;;;3.00;1.00;;;;;;;;5072964;27;45803;-87
2021/08/16 05:21:50;;;;;;;;;1.00;1.00;;;;;;;;5053346;28;47258;-87
2021/08/16 05:24:15;;;;;;;;;1.67;1.00;;;;;;;;5070358;28;45300;-89
2021/08/16 05:26:40;;;;;;;;;2.67;1.00;;;;;;;;5065942;27;45441;-89
2021/08/16 05:29:05;;;;;;;;;1.00;1.00;;;;;;;;5045461;28;45370;-89
2021/08/16 05:31:30;;;;;;;;;2.00;2.00;;;;;;;;5066273;28;45519;-89
2021/08/16 05:33:56;;;;;;;;;1.33;1.00;;;;;;;;5070893;27;45459;-89
2021/08/16 05:36:21;;;;;;;;;1.00;1.00;;;;;;;;5072851;27;45645;-88
2021/08/16 05:38:46;;;;;;;;;1.67;1.67;;;;;;;;5068593;27;45667;-90
2021/08/16 05:41:12;;;;;;;;;2.33;1.00;;;;;;;;5069456;27;45855;-88
2021/08/16 05:43:37;;;;;;;;;3.00;1.00;;;;;;;;5079292;27;45393;-89
2021/08/16 05:46:02;;;;;;;;;1.00;1.00;;;;;;;;5064867;27;45424;-88
2021/08/16 05:48:27;;;;;;;;;3.50;1.25;;;;;;;;5060751;28;45325;-88
2021/08/16 05:50:53;;;;;;;;;0.00;0.00;;;;;;;;5054979;28;46026;-85
2021/08/16 05:53:18;;;;;;;;;3.00;1.00;;;;;;;;5049798;28;45438;-87
2021/08/16 05:55:44;;;;;;;;;0.00;0.00;;;;;;;;5066893;28;45540;-87
2021/08/16 05:58:10;;;;;;;;;1.00;0.50;;;;;;;;5064383;27;45372;-88
2021/08/16 06:00:35;;;;;;;;;1.00;1.00;;;;;;;;5073751;28;46050;-89
2021/08/16 06:03:00;;;;;;;;;3.00;1.00;;;;;;;;5053495;28;45347;-89
2021/08/16 06:05:25;;;;;;;;;0.00;0.00;;;;;;;;5071469;28;45466;-87
2021/08/16 06:07:51;;;;;;;;;2.25;1.00;;;;;;;;5071041;28;45313;-79
2021/08/16 06:10:16;;;;;;;;;0.33;0.33;;;;;;;;5072624;28;46516;-88
2021/08/16 06:12:41;;;;;;;;;1.00;1.00;;;;;;;;5051101;28;45566;-88
2021/08/16 06:15:08;;;;;;;;;1.00;1.00;;;;;;;;5071238;28;45308;-89
2021/08/16 06:17:36;;;;;;;;;1.00;1.00;;;;;;;;5066110;28;45320;-87
2021/08/16 06:20:01;;;;;;;;;1.25;1.25;;;;;;;;5060496;28;45385;-89
2021/08/16 06:22:27;;;;;;;;;0.00;0.00;;;;;;;;5058187;27;45636;-88
2021/08/16 06:24:52;;;;;;;;;0.75;0.75;;;;;;;;5036797;27;45536;-89
2021/08/16 06:27:17;;;;;;;;;2.00;1.00;;;;;;;;5074602;27;45287;-89
2021/08/16 06:29:42;;;;;;;;;0.33;0.33;;;;;;;;5061638;27;45598;-90
2021/08/16 06:32:08;;;;;;;;;1.00;0.50;;;;;;;;5065428;27;45366;-89
2021/08/16 06:34:39;;;;;;;;;0.67;0.67;;;;;;;;5068393;27;45321;-89
2021/08/16 06:37:04;;;;;;;;;8.00;1.00;;;;;;;;5053494;28;45575;-89
2021/08/16 06:39:29;;;;;;;;;1.33;1.00;;;;;;;;5068600;28;45470;-90
2021/08/16 06:41:56;;;;;;;;;1.00;1.00;;;;;;;;5067047;27;45284;-89
2021/08/16 06:44:23;;;;;;;;;1.50;0.00;;;;;;;;5067031;28;45478;-89
2021/08/16 06:46:48;;;;;;;;;0.25;0.25;;;;;;;;5067587;28;45521;-88
2021/08/16 06:49:14;;;;;;;;;2.00;0.75;;;;;;;;5069233;28;46225;-89
2021/08/16 06:51:39;;;;;;;;;1.00;0.25;;;;;;;;5063381;28;45440;-89
2021/08/16 06:54:05;;;;;;;;;0.75;0.00;;;;;;;;5070832;28;45391;-88
2021/08/16 06:56:30;;;;;;;;;0.50;0.50;;;;;;;;5060466;28;45642;-89
2021/08/16 06:58:55;;;;;;;;;0.00;0.00;;;;;;;;5060727;28;45510;-88
2021/08/16 07:01:25;;;;;;;;;1.50;0.00;;;;;;;;5061651;27;45474;-90
2021/08/16 07:03:50;;;;;;;;;1.00;1.00;;;;;;;;5069324;28;45316;-88
2021/08/16 07:06:15;;;;;;;;;3.00;1.00;;;;;;;;5070053;27;45433;-88
2021/08/16 07:08:41;;;;;;;;;0.00;0.00;;;;;;;;5045639;28;48034;-91
2021/08/16 07:11:06;;;;;;;;;1.50;0.75;;;;;;;;5066640;28;45601;-88
2021/08/16 07:13:31;;;;;;;;;0.00;0.00;;;;;;;;5044360;27;45441;-90
2021/08/16 07:15:57;;;;;;;;;3.00;0.00;;;;;;;;5061547;27;45448;-86
2021/08/16 07:18:22;;;;;;;;;0.33;0.33;;;;;;;;5071869;28;45373;-89
2021/08/16 07:20:47;;;;;;;;;0.00;0.00;;;;;;;;5062239;27;45396;-88
2021/08/16 07:23:12;;;;;;;;;0.00;0.00;;;;;;;;5071049;28;45573;-88
2021/08/16 07:25:37;;;;;;;;;3.00;0.25;;;;;;;;5065798;27;45272;-86
2021/08/16 07:28:03;;;;;;;;;0.25;0.25;;;;;;;;5070191;27;45418;-89
2021/08/16 07:30:28;;;;;;;;;0.00;0.00;;;;;;;;5066503;27;45413;-89
2021/08/16 07:32:53;;;;;;;;;0.33;0.33;;;;;;;;5066987;28;45221;-89
2021/08/16 07:35:20;;;;;;;;;0.00;0.00;;;;;;;;5065854;27;45291;-88
2021/08/16 07:37:45;;;;;;;;;0.00;0.00;;;;;;;;5067307;28;45477;-89
2021/08/16 07:40:12;;;;;;;;;1.00;1.00;;;;;;;;5050420;28;45427;-87
2021/08/16 07:42:38;;;;;;;;;0.25;0.25;;;;;;;;5056200;28;45260;-88
2021/08/16 07:45:04;;;;;;;;;0.00;0.00;;;;;;;;5059942;28;45397;-88
2021/08/16 07:47:29;;;;;;;;;0.50;0.50;;;;;;;;5067936;28;46296;-89
2021/08/16 07:49:54;;;;;;;;;0.33;0.00;;;;;;;;5065319;28;45457;-88
2021/08/16 07:52:19;;;;;;;;;1.00;1.00;;;;;;;;5067934;27;45340;-88
2021/08/16 07:54:44;;;;;;;;;2.67;1.67;;;;;;;;5081436;27;45681;-87
2021/08/16 07:57:10;;;;;;;;;0.00;0.00;;;;;;;;5050625;28;47098;-89
2021/08/16 07:59:35;;;;;;;;;0.00;0.00;;;;;;;;5050450;28;45397;-89
2021/08/16 08:02:01;;;;;;;;;0.00;0.00;;;;;;;;5055596;28;45410;-88
2021/08/16 08:04:26;;;;;;;;;0.75;0.00;;;;;;;;5068019;28;45366;-87
2021/08/16 08:06:51;;;;;;;;;1.00;1.00;;;;;;;;5067242;27;46069;-88
2021/08/16 08:09:17;;;;;;;;;1.67;1.00;;;;;;;;5068697;28;45439;-88
2021/08/16 08:11:42;;;;;;;;;2.00;2.00;;;;;;;;5048625;28;45447;-88
2021/08/16 08:14:07;;;;;;;;;2.00;1.00;;;;;;;;5062169;28;45473;-82
2021/08/16 08:16:32;;;;;;;;;1.00;1.00;;;;;;;;5067272;28;45646;-86
2021/08/16 08:18:57;;;;;;;;;1.00;1.00;;;;;;;;5034610;28;45599;-83
2021/08/16 08:21:23;;;;;;;;;1.33;0.33;;;;;;;;5063152;27;45427;-86
2021/08/16 08:23:48;;;;;;;;;3.00;0.00;;;;;;;;5056634;27;45984;-85
2021/08/16 08:26:13;;;;;;;;;2.00;1.00;;;;;;;;5060245;27;45427;-88
2021/08/16 08:28:38;;;;;;;;;1.67;1.00;;;;;;;;5062616;27;45701;-86
2021/08/16 08:31:04;;;;;;;;;0.33;0.00;;;;;;;;5061886;28;45391;-86
2021/08/16 08:33:29;;;;;;;;;0.00;0.00;;;;;;;;5078043;27;46033;-86
2021/08/16 08:35:54;;;;;;;;;1.00;1.00;;;;;;;;5049658;28;47686;-85
2021/08/16 08:38:20;;;;;;;;;0.00;0.00;;;;;;;;5042638;28;46067;-87
2021/08/16 08:40:45;;;;;;;;;1.50;0.50;;;;;;;;5067385;28;45742;-84
2021/08/16 08:43:12;;;;;;;;;0.00;0.00;;;;;;;;5054296;28;45515;-85
2021/08/16 08:45:38;;;;;;;;;2.00;0.00;;;;;;;;5065390;28;45387;-86
2021/08/16 08:48:03;;;;;;;;;2.00;0.50;;;;;;;;5075930;27;45395;-86
2021/08/16 08:50:29;;;;;;;;;1.00;1.00;;;;;;;;5050432;28;45440;-86
2021/08/16 08:52:59;;;;;;;;;1.67;0.33;;;;;;;;5047095;28;45566;-83
2021/08/16 08:55:24;;;;;;;;;0.50;0.50;;;;;;;;5059030;28;45398;-86
2021/08/16 08:57:49;;;;;;;;;1.25;0.00;;;;;;;;5069615;28;45374;-86
2021/08/16 09:00:19;;;;;;;;;0.67;0.67;;;;;;;;5066287;28;45391;-84
2021/08/16 09:02:59;;;;;;;;;0.00;0.00;;;;;;;;5067300;27;45394;-83
2021/08/16 09:05:24;;;;;;;;;2.00;1.00;;;;;;;;5055448;28;45513;-79
2021/08/16 09:07:50;;;;;;;;;2.33;0.00;;;;;;;;5058098;28;45378;-80
2021/08/16 09:10:16;;;;;;;;;1.00;1.00;;;;;;;;5054772;28;45485;-80
2021/08/16 09:12:42;;;;;;;;;2.00;0.00;;;;;;;;5055721;28;45409;-79
2021/08/16 09:15:15;;;;;;;;;0.50;0.00;;;;;;;;5058599;28;46193;-81
2021/08/16 09:17:41;;;;;;;;;0.00;0.00;;;;;;;;5046260;28;46897;-79
2021/08/16 09:20:17;;;;;;;;;3.00;2.00;;;;;;;;5041297;28;45645;-79
2021/08/16 09:22:42;;;;;;;;;1.75;0.25;;;;;;;;5058111;27;45526;-80
2021/08/16 09:25:10;;;;;;;;;0.00;0.00;;;;;;;;5054331;27;45673;-80
2021/08/16 09:27:46;;;;;;;;;3.00;1.00;;;;;;;;5064062;27;45431;-80
2021/08/16 09:30:12;;;;;;;;;1.00;1.00;;;;;;;;5054124;28;45483;-79
2021/08/16 09:32:37;;;;;;;;;2.50;1.50;;;;;;;;5039321;28;45648;-80
2021/08/16 09:35:05;;;;;;;;;1.00;1.00;;;;;;;;5055886;27;45900;-81
2021/08/16 09:37:31;;;;;;;;;1.00;1.00;;;;;;;;5057710;28;45588;-78
2021/08/16 09:39:57;;;;;;;;;0.50;0.50;;;;;;;;5057041;28;45400;-80
2021/08/16 09:42:22;;;;;;;;;16.50;13.25;;;;;;;;5054970;28;45304;-81
2021/08/16 09:44:48;;;;;;;;;18.33;16.00;;;;;;;;5054260;28;46269;-79
2021/08/16 09:47:14;;;;;;;;;8.25;8.00;;;;;;;;5059660;28;45497;-79
2021/08/16 09:49:39;;;;;;;;;4.25;4.00;;;;;;;;5039948;28;45651;-82
2021/08/16 09:52:09;;;;;;;;;8.00;8.00;;;;;;;;5038733;27;45587;-79
2021/08/16 09:54:34;;;;;;;;;4.75;4.75;;;;;;;;5052799;28;51389;-79
2021/08/16 09:57:03;;;;;;;;;2.25;2.00;;;;;;;;5081408;27;45394;-78
2021/08/16 09:59:29;;;;;;;;;7.50;4.50;;;;;;;;5067230;27;45866;-78
2021/08/16 10:01:54;;;;;;;;;2.00;2.00;;;;;;;;5062488;27;45443;-81
2021/08/16 10:04:19;;;;;;;;;3.00;3.00;;;;;;;;5072217;28;45577;-80
2021/08/16 10:06:45;;;;;;;;;2.00;2.00;;;;;;;;5067141;27;45442;-80
2021/08/16 10:09:11;;;;;;;;;3.00;3.00;;;;;;;;5071242;28;45693;-80
2021/08/16 10:11:36;;;;;;;;;3.00;3.00;;;;;;;;5067317;28;45442;-80
2021/08/16 10:14:02;;;;;;;;;4.75;1.50;;;;;;;;5063994;28;45762;-80
2021/08/16 10:16:31;;;;;;;;;1.00;1.00;;;;;;;;5060091;28;45522;-80
2021/08/16 10:19:04;;;;;;;;;1.00;1.00;;;;;;;;5052339;28;45410;-80
2021/08/16 10:21:30;;;;;;;;;1.75;1.75;;;;;;;;5075142;27;45370;-79
2021/08/16 10:23:56;;;;;;;;;1.00;1.00;;;;;;;;5050556;28;46065;-79
2021/08/16 10:26:25;;;;;;;;;0.25;0.25;;;;;;;;5063007;28;45552;-79
2021/08/16 10:28:54;;;;;;;;;2.25;1.00;;;;;;;;5054328;28;45521;-80
2021/08/16 10:31:30;;;;;;;;;0.00;0.00;;;;;;;;5038942;28;45489;-80
2021/08/16 10:33:56;;;;;;;;;3.00;1.00;;;;;;;;5054876;28;45526;-80
2021/08/16 10:36:22;;;;;;;;;2.00;1.00;;;;;;;;5054376;28;45705;-79
2021/08/16 10:38:52;;;;;;;;;2.25;1.00;;;;;;;;5063897;28;47357;-81
2021/08/16 10:41:28;;;;;;;;;1.00;1.00;;;;;;;;5055185;28;45523;-81
2021/08/16 10:43:54;;;;;;;;;1.00;1.00;;;;;;;;5040713;28;48427;-83
2021/08/16 10:46:21;;;;;;;;;1.00;1.00;;;;;;;;5052554;28;45679;-81
2021/08/16 10:48:47;;;;;;;;;3.00;1.75;;;;;;;;5047478;28;45554;-79
2021/08/16 10:51:12;;;;;;;;;2.25;2.00;;;;;;;;5067251;28;45560;-79
2021/08/16 10:53:46;;;;;;;;;1.75;1.00;;;;;;;;5044088;28;46358;-79
2021/08/16 10:56:18;;;;;;;;;3.00;2.00;;;;;;;;5069328;28;45653;-79
2021/08/16 10:58:44;;;;;;;;;4.00;1.50;;;;;;;;5064401;28;45553;-78
2021/08/16 11:01:12;;;;;;;;;20.50;19.00;;;;;;;;5063903;28;45579;-79
2021/08/16 11:03:37;;;;;;;;;14.75;14.50;;;;;;;;5039652;28;46329;-78
2021/08/16 11:06:06;;;;;;;;;30.50;29.25;;;;;;;;5056892;28;45458;-79
2021/08/16 11:08:31;;;;;;;;;11.75;11.75;;;;;;;;5063993;27;45526;-79
2021/08/16 11:11:04;;;;;;;;;24.00;23.00;;;;;;;;5064139;27;45697;-78
2021/08/16 11:13:30;;;;;;;;;30.00;24.75;;;;;;;;5063831;28;48892;-79
2021/08/16 11:16:03;;;;;;;;;27.00;23.25;;;;;;;;5059664;28;45513;-79
2021/08/16 11:18:28;;;;;;;;;19.75;19.75;;;;;;;;5037892;28;45407;-79
2021/08/16 11:20:57;;;;;;;;;15.00;13.00;;;;;;;;5070413;27;45441;-79
2021/08/16 11:23:22;;;;;;;;;14.25;13.75;;;;;;;;5048524;28;46168;-79
2021/08/16 11:25:49;;;;;;;;;4.00;4.00;;;;;;;;5061600;28;45473;-79
2021/08/16 11:28:18;;;;;;;;;11.00;9.25;;;;;;;;5056597;28;45487;-79
2021/08/16 11:30:43;;;;;;;;;8.75;7.00;;;;;;;;5061352;27;45439;-79
2021/08/16 11:33:08;;;;;;;;;13.00;11.67;;;;;;;;5036655;27;47272;-80
2021/08/16 11:35:33;;;;;;;;;6.00;4.67;;;;;;;;5061565;27;45669;-78
2021/08/16 11:37:58;;;;;;;;;5.00;4.00;;;;;;;;5044454;28;51883;-78
2021/08/16 11:40:25;;;;;;;;;5.75;5.00;;;;;;;;5062615;27;45359;-78
2021/08/16 11:42:51;;;;;;;;;6.75;4.00;;;;;;;;5058398;28;45509;-78
2021/08/16 11:45:18;;;;;;;;;5.75;5.50;;;;;;;;5061431;27;45500;-78
2021/08/16 11:47:44;;;;;;;;;3.00;3.00;;;;;;;;5062217;27;45884;-80
2021/08/16 11:50:14;;;;;;;;;4.25;4.00;;;;;;;;5060077;27;45549;-81
2021/08/16 11:52:41;;;;;;;;;4.75;4.50;;;;;;;;5062785;28;45326;-80
2021/08/16 11:55:06;;;;;;;;;10.75;7.00;;;;;;;;5054008;28;45959;-79
2021/08/16 11:57:36;;;;;;;;;9.25;7.25;;;;;;;;5063408;28;45401;-79
2021/08/16 12:00:02;;;;;;;;;10.00;7.00;;;;;;;;5064459;28;45538;-79
2021/08/16 12:02:29;;;;;;;;;10.00;9.00;;;;;;;;5057650;28;46577;-79
2021/08/16 12:04:55;;;;;;;;;8.00;8.00;;;;;;;;5063673;28;45864;-80
2021/08/16 12:07:21;;;;;;;;;11.75;9.25;;;;;;;;5059211;28;46060;-82
2021/08/16 12:09:47;;;;;;;;;10.00;9.00;;;;;;;;5055128;28;45616;-81
2021/08/16 12:12:12;;;;;;;;;10.75;10.00;;;;;;;;5052208;27;46034;-79
2021/08/16 12:14:38;;;;;;;;;13.00;8.67;;;;;;;;5056519;28;45494;-78
2021/08/16 12:17:04;;;;;;;;;16.00;10.25;;;;;;;;5044428;28;58562;-81
2021/08/16 12:19:30;;;;;;;;;8.25;8.00;;;;;;;;5059334;28;45615;-79
2021/08/16 12:22:08;;;;;;;;;13.75;9.50;;;;;;;;5053955;28;45682;-80
2021/08/16 12:24:34;;;;;;;;;15.75;11.25;;;;;;;;5058202;27;45361;-82
2021/08/16 12:27:04;;;;;;;;;14.75;11.25;;;;;;;;5054051;27;45794;-81
2021/08/16 12:29:37;;;;;;;;;14.75;13.25;;;;;;;;5060275;27;52210;-81
2021/08/16 12:32:12;;;;;;;;;13.50;11.25;;;;;;;;5059941;28;46137;-81
2021/08/16 12:34:37;;;;;;;;;15.50;12.75;;;;;;;;5065990;28;45690;-80
2021/08/16 12:37:03;;;;;;;;;12.00;12.00;;;;;;;;5062366;27;45880;-81
2021/08/16 12:39:32;;;;;;;;;15.50;13.00;;;;;;;;5069787;27;45390;-82
2021/08/16 12:42:07;;;;;;;;;20.75;17.00;;;;;;;;5066382;28;47151;-82
2021/08/16 12:44:32;;;;;;;;;15.00;14.00;;;;;;;;5048134;28;45604;-82
2021/08/16 12:47:02;;;;;;;;;18.00;14.25;;;;;;;;5063969;27;45300;-82
2021/08/16 12:49:27;;;;;;;;;23.00;17.75;;;;;;;;5060631;27;45673;-82
2021/08/16 12:51:53;;;;;;;;;18.50;16.75;;;;;;;;5058746;28;45445;-84
2021/08/16 12:54:18;;;;;;;;;18.33;16.33;;;;;;;;5041997;28;45606;-81
2021/08/16 12:56:43;;;;;;;;;23.75;18.50;;;;;;;;5058382;27;45721;-83
2021/08/16 12:59:08;;;;;;;;;20.00;17.00;;;;;;;;5070086;27;45716;-83
2021/08/16 13:01:34;;;;;;;;;20.67;19.33;;;;;;;;5060625;28;50551;-83
2021/08/16 13:04:00;;;;;;;;;22.50;21.50;;;;;;;;5067538;28;45658;-84
2021/08/16 13:06:25;;;;;;;;;18.75;17.25;;;;;;;;5070464;28;45856;-83
2021/08/16 13:08:51;;;;;;;;;28.00;20.00;;;;;;;;5039211;28;46567;-84
2021/08/16 13:11:16;;;;;;;;;22.00;19.50;;;;;;;;5062479;28;45518;-85
2021/08/16 13:13:42;;;;;;;;;20.75;17.75;;;;;;;;5061360;28;45404;-85
2021/08/16 13:16:07;;;;;;;;;24.50;22.00;;;;;;;;5039445;28;45733;-80
2021/08/16 13:18:33;;;;;;;;;26.25;22.00;;;;;;;;5057403;27;45435;-82
2021/08/16 13:20:59;;;;;;;;;25.00;23.00;;;;;;;;5082689;27;46599;-90
2021/08/16 13:23:24;;;;;;;;;25.50;22.00;;;;;;;;5079620;27;45331;-93
2021/08/16 13:25:49;;;;;;;;;24.00;21.50;;;;;;;;5062867;28;45513;-93
2021/08/16 13:28:14;;;;;;;;;25.67;20.00;;;;;;;;5073981;28;45486;-93
2021/08/16 13:30:40;;;;;;;;;23.00;22.75;;;;;;;;5072100;28;45295;-94
2021/08/16 13:33:05;;;;;;;;;21.50;19.50;;;;;;;;5052462;27;45827;-94
2021/08/16 13:35:30;;;;;;;;;23.67;20.33;;;;;;;;5065631;27;45266;-93
2021/08/16 13:37:55;;;;;;;;;22.33;19.33;;;;;;;;5064465;28;45463;-96
2021/08/16 13:40:20;;;;;;;;;22.67;22.33;;;;;;;;5068911;28;46026;-93
2021/08/16 13:42:46;;;;;;;;;22.67;21.33;;;;;;;;5069558;28;45759;-94
2021/08/16 13:45:11;;;;;;;;;21.25;19.00;;;;;;;;5059744;28;45422;-94
2021/08/16 13:47:36;;;;;;;;;22.33;18.67;;;;;;;;5083763;27;45610;-93
2021/08/16 13:50:02;;;;;;;;;21.50;20.25;;;;;;;;5065179;28;45512;-93
2021/08/16 13:52:27;;;;;;;;;23.25;19.00;;;;;;;;5067494;28;45297;-93
2021/08/16 13:54:52;;;;;;;;;22.67;19.67;;;;;;;;5046524;28;45327;-92
2021/08/16 13:57:18;;;;;;;;;27.50;23.50;;;;;;;;5060492;28;45338;-92
2021/08/16 13:59:43;;;;;;;;;23.00;20.67;;;;;;;;5066789;28;45408;-94
2021/08/16 14:02:08;;;;;;;;;24.00;21.33;;;;;;;;5074325;28;45461;-94
2021/08/16 14:04:33;;;;;;;;;24.50;22.75;;;;;;;;5066520;28;45686;-94
2021/08/16 14:06:58;;;;;;;;;29.00;19.33;;;;;;;;5068709;28;45512;-93
2021/08/16 14:09:24;;;;;;;;;24.67;23.00;;;;;;;;5055597;28;47390;-94
2021/08/16 14:11:49;;;;;;;;;25.75;23.00;;;;;;;;5065190;28;45391;-94
2021/08/16 14:14:14;;;;;;;;;20.67;20.33;;;;;;;;5049530;28;45390;-94
2021/08/16 14:16:40;;;;;;;;;25.00;21.75;;;;;;;;5067020;28;45550;-95
2021/08/16 14:19:05;;;;;;;;;24.25;22.50;;;;;;;;5046638;28;46970;-95
2021/08/16 14:21:31;;;;;;;;;24.75;19.75;;;;;;;;5063394;28;45275;-94
2021/08/16 14:23:56;;;;;;;;;21.50;19.25;;;;;;;;5068083;28;45383;-90
2021/08/16 14:26:21;;;;;;;;;29.33;27.67;;;;;;;;5064958;28;45340;-94
2021/08/16 14:28:47;;;;;;;;;29.00;26.00;;;;;;;;5056870;28;47635;-94
2021/08/16 14:31:12;;;;;;;;;24.33;22.33;;;;;;;;5057127;28;45381;-95